Time;durP1;ratioP1;P1;durP2;ratioP2;P2;SDS_P1;SDS_P2;PMS_P1;PMS_P2;Temp;Humidity;BMP_temperature;BMP_pressure;BME280_temperature;BME280_humidity;BME280_pressure;Samples;Min_cycle;Max_cycle;Signal;HPM_P1;HPM_P2
2023/05/10 00:02:26;;;;;;;7.90;3.42;;;;;;;0.00;0.00;73180.13;10554726;28;20046;-75
2023/05/10 00:07:28;;;;;;;5.47;2.72;;;;;;;0.00;0.00;73189.28;10531250;28;20134;-74
2023/05/10 00:12:29;;;;;;;5.20;2.38;;;;;;;0.00;0.00;73190.78;10539293;28;20119;-75
2023/05/10 00:17:31;;;;;;;7.32;3.08;;;;;;;0.00;0.00;73186.22;10544624;28;20040;-75
2023/05/10 00:22:33;;;;;;;6.20;2.47;;;;;;;0.00;0.00;73184.69;10542819;28;20044;-76
2023/05/10 00:27:35;;;;;;;6.93;2.75;;;;;;;0.00;0.00;73177.06;10538547;28;20048;-75
2023/05/10 00:32:36;;;;;;;5.78;3.08;;;;;;;0.00;0.00;73181.63;10529336;28;20051;-73
2023/05/10 00:37:38;;;;;;;5.75;3.10;;;;;;;0.00;0.00;73178.59;10546134;28;20052;-73
2023/05/10 00:42:40;;;;;;;5.18;2.60;;;;;;;0.00;0.00;73172.47;10530494;28;20043;-72
2023/05/10 00:47:42;;;;;;;6.30;2.78;;;;;;;0.00;0.00;73172.47;10539062;28;20043;-73
2023/05/10 00:52:43;;;;;;;6.95;2.55;;;;;;;0.00;0.00;73163.31;10525381;28;20385;-73
2023/05/10 00:57:45;;;;;;;4.82;2.33;;;;;;;0.00;0.00;73163.31;10530300;28;20054;-74
2023/05/10 01:02:47;;;;;;;6.13;2.60;;;;;;;0.00;0.00;73157.22;10528192;28;20537;-74
2023/05/10 01:07:49;;;;;;;5.85;2.50;;;;;;;0.00;0.00;73157.22;10537062;28;20043;-74
2023/05/10 01:12:52;;;;;;;10.43;2.67;;;;;;;0.00;0.00;73163.31;10546051;28;20032;-74
2023/05/10 01:17:56;;;;;;;5.95;2.40;;;;;;;0.00;0.00;73158.75;10544429;28;20080;-74
2023/05/10 01:23:55;;;;;;;7.53;2.33;;;;;;;0.00;0.00;73160.28;10528187;28;20032;-74
2023/05/10 01:29:29;;;;;;;5.00;2.45;;;;;;;0.00;0.00;73175.53;10512518;28;20085;-74
2023/05/10 01:34:40;;;;;;;4.30;1.90;;;;;;;0.00;0.00;73172.47;10560000;28;20047;-73
2023/05/10 01:39:54;;;;;;;5.00;2.15;;;;;;;0.00;0.00;73174.00;10583785;27;20040;-75
2023/05/10 01:45:27;;;;;;;5.32;2.75;;;;;;;0.00;0.00;73172.47;10557484;28;20040;-73
2023/05/10 01:50:30;;;;;;;6.05;3.05;;;;;;;0.00;0.00;73175.53;10558681;28;20048;-74
2023/05/10 01:55:39;;;;;;;7.20;2.50;;;;;;;0.00;0.00;73175.53;10517129;28;20518;-73
2023/05/10 02:00:47;;;;;;;4.90;2.45;;;;;;;0.00;0.00;73167.91;10568850;28;20048;-74
2023/05/10 02:05:50;;;;;;;5.03;2.85;;;;;;;0.00;0.00;73170.97;10558810;28;20048;-73
2023/05/10 02:10:55;;;;;;;6.53;2.75;;;;;;;0.00;0.00;73175.53;10552849;28;20131;-73
2023/05/10 02:15:57;;;;;;;4.65;2.40;;;;;;;0.00;0.00;73178.59;10567240;28;20047;-72
2023/05/10 02:21:01;;;;;;;4.57;2.40;;;;;;;0.00;0.00;73181.63;10548785;28;20050;-74
2023/05/10 02:26:05;;;;;;;5.55;2.53;;;;;;;0.00;0.00;73184.69;10548142;28;20059;-73
2023/05/10 02:31:08;;;;;;;6.55;2.72;;;;;;;0.00;0.00;73189.28;10554963;28;20044;-73
2023/05/10 02:36:13;;;;;;;4.97;2.47;;;;;;;0.00;0.00;73183.16;10549879;28;20035;-72
2023/05/10 02:41:16;;;;;;;6.60;2.88;;;;;;;0.00;0.00;73186.22;10549047;28;20483;-72
2023/05/10 02:46:18;;;;;;;6.55;2.90;;;;;;;0.00;0.00;73186.22;10557978;28;20442;-72
2023/05/10 02:51:24;;;;;;;6.25;2.58;;;;;;;0.00;0.00;73184.69;10559058;27;20148;-71
2023/05/10 02:56:33;;;;;;;5.30;2.60;;;;;;;0.00;0.00;73183.16;10548649;28;20089;-71
2023/05/10 03:01:35;;;;;;;6.38;3.10;;;;;;;0.00;0.00;73184.69;10567085;28;20040;-73
2023/05/10 03:06:37;;;;;;;5.28;2.58;;;;;;;0.00;0.00;73184.69;10567822;28;20435;-71
2023/05/10 03:11:51;;;;;;;4.05;1.77;;;;;;;0.00;0.00;73192.31;10540951;28;20126;-73
2023/05/10 03:17:07;;;;;;;4.70;2.20;;;;;;;0.00;0.00;73198.44;10564931;27;20044;-71
2023/05/10 03:22:11;;;;;;;6.28;2.60;;;;;;;0.00;0.00;73210.63;10547442;28;20040;-72
2023/05/10 03:27:14;;;;;;;5.22;2.53;;;;;;;0.00;0.00;73230.47;10556015;28;20578;-72
2023/05/10 03:32:16;;;;;;;5.18;2.65;;;;;;;0.00;0.00;73257.94;10561544;28;20036;-72
2023/05/10 03:37:18;;;;;;;4.05;2.38;;;;;;;0.00;0.00;73279.28;10563818;28;20043;-72
2023/05/10 03:42:20;;;;;;;7.47;3.00;;;;;;;0.00;0.00;73305.25;10564263;28;20158;-73
2023/05/10 03:47:22;;;;;;;4.72;2.08;;;;;;;0.00;0.00;73305.25;10547534;28;20085;-73
2023/05/10 03:52:23;;;;;;;5.38;2.60;;;;;;;0.00;0.00;73320.50;10540695;28;20039;-72
2023/05/10 03:57:25;;;;;;;4.85;2.42;;;;;;;0.00;0.00;73314.41;10556072;28;20467;-72
2023/05/10 04:02:26;;;;;;;5.85;2.78;;;;;;;0.00;0.00;73300.66;10544267;28;20403;-71
2023/05/10 04:07:29;;;;;;;4.28;2.00;;;;;;;0.00;0.00;73285.41;10551468;28;20040;-73
2023/05/10 04:12:30;;;;;;;3.60;1.63;;;;;;;0.00;0.00;73271.66;10540657;28;20400;-72
2023/05/10 04:17:32;;;;;;;3.38;1.48;;;;;;;0.00;0.00;73270.13;10556079;28;20050;-72
2023/05/10 04:22:33;;;;;;;4.75;1.75;;;;;;;0.00;0.00;73264.03;10542891;28;20422;-72
2023/05/10 04:27:35;;;;;;;4.63;1.38;;;;;;;0.00;0.00;73267.09;10548860;28;20075;-72
2023/05/10 04:32:37;;;;;;;3.63;1.60;;;;;;;0.00;0.00;73259.47;10562633;28;20036;-71
2023/05/10 04:37:38;;;;;;;2.40;1.08;;;;;;;0.00;0.00;73264.03;10562151;28;20055;-71
2023/05/10 04:42:41;;;;;;;3.22;1.35;;;;;;;0.00;0.00;73270.13;10540591;28;20235;-72
2023/05/10 04:47:42;;;;;;;3.85;1.50;;;;;;;0.00;0.00;73270.13;10552854;28;20043;-72
2023/05/10 04:52:44;;;;;;;4.57;1.95;;;;;;;0.00;0.00;73273.19;10555041;27;20319;-72
2023/05/10 04:57:46;;;;;;;5.60;1.63;;;;;;;0.00;0.00;73286.94;10560562;27;20663;-72
2023/05/10 05:02:47;;;;;;;4.93;1.80;;;;;;;0.00;0.00;73303.72;10549358;27;20039;-72
2023/05/10 05:07:49;;;;;;;4.07;1.50;;;;;;;0.00;0.00;73325.06;10571495;28;20043;-72
2023/05/10 05:12:50;;;;;;;3.25;1.45;;;;;;;0.00;0.00;73328.13;10545717;27;20514;-72
2023/05/10 05:17:52;;;;;;;7.75;1.55;;;;;;;0.00;0.00;73334.22;10552371;27;20044;-73
2023/05/10 05:22:54;;;;;;;3.72;1.83;;;;;;;0.00;0.00;73334.22;10569051;28;20042;-73
2023/05/10 05:27:55;;;;;;;4.07;1.70;;;;;;;0.00;0.00;73343.38;10561510;27;20059;-75
2023/05/10 05:32:57;;;;;;;4.80;1.83;;;;;;;0.00;0.00;73343.38;10559901;27;20046;-74
2023/05/10 05:37:59;;;;;;;2.13;0.90;;;;;;;0.00;0.00;73349.50;10557112;27;20057;-73
2023/05/10 05:43:00;;;;;;;2.55;1.20;;;;;;;0.00;0.00;73358.66;10539426;27;20415;-72
2023/05/10 05:48:02;;;;;;;4.38;1.60;;;;;;;0.00;0.00;73358.66;10553097;27;20054;-73
2023/05/10 05:53:03;;;;;;;3.67;1.58;;;;;;;0.00;0.00;73349.50;10561067;27;20109;-73
2023/05/10 05:58:05;;;;;;;3.08;1.50;;;;;;;0.00;0.00;73352.53;10559345;28;20044;-72
2023/05/10 06:03:07;;;;;;;3.17;1.45;;;;;;;0.00;0.00;73346.44;10570130;27;20055;-74
2023/05/10 06:08:08;;;;;;;5.05;2.10;;;;;;;0.00;0.00;73346.44;10561435;28;20047;-74
2023/05/10 06:13:10;;;;;;;4.53;1.92;;;;;;;0.00;0.00;73335.75;10569003;27;20043;-73
2023/05/10 06:18:12;;;;;;;4.65;1.88;;;;;;;0.00;0.00;73341.84;10561267;27;20643;-73
2023/05/10 06:23:13;;;;;;;6.13;2.25;;;;;;;0.00;0.00;73343.38;10551638;28;20043;-73
2023/05/10 06:28:15;;;;;;;5.13;2.28;;;;;;;0.00;0.00;73351.00;10561712;28;20130;-74
2023/05/10 06:33:16;;;;;;;6.45;2.53;;;;;;;0.00;0.00;73343.38;10548638;28;20104;-74
2023/05/10 06:38:18;;;;;;;4.65;2.30;;;;;;;0.00;0.00;73355.59;10552690;28;20079;-74
2023/05/10 06:43:19;;;;;;;5.32;2.17;;;;;;;0.00;0.00;73343.38;10549798;28;20048;-75
2023/05/10 06:48:21;;;;;;;6.07;2.60;;;;;;;0.00;0.00;73347.97;10567209;27;20139;-76
2023/05/10 06:53:23;;;;;;;5.65;1.92;;;;;;;0.00;0.00;73351.00;10556042;28;20046;-75
2023/05/10 06:58:25;;;;;;;5.05;2.30;;;;;;;0.00;0.00;73346.44;10537669;28;20042;-74
2023/05/10 07:03:26;;;;;;;5.10;2.25;;;;;;;0.00;0.00;73344.91;10549333;28;20126;-75
2023/05/10 07:08:28;;;;;;;6.32;2.72;;;;;;;0.00;0.00;73349.50;10561475;28;20055;-74
2023/05/10 07:13:33;;;;;;;5.53;2.38;;;;;;;0.00;0.00;73354.06;10544025;28;20138;-75
2023/05/10 07:18:35;;;;;;;4.30;2.08;;;;;;;0.00;0.00;73346.44;10548770;28;20400;-73
2023/05/10 07:23:37;;;;;;;6.45;2.28;;;;;;;0.00;0.00;73341.84;10547446;28;20050;-74
2023/05/10 07:28:39;;;;;;;3.78;1.70;;;;;;;0.00;0.00;73357.13;10539291;28;21712;-76
2023/05/10 07:33:40;;;;;;;5.90;2.13;;;;;;;0.00;0.00;73357.13;10544152;28;20441;-75
2023/05/10 07:38:42;;;;;;;4.10;2.03;;;;;;;0.00;0.00;73355.59;10555813;27;20048;-75
2023/05/10 07:43:44;;;;;;;4.75;2.03;;;;;;;0.00;0.00;73338.81;10532829;28;20035;-76
2023/05/10 07:48:45;;;;;;;2.72;1.50;;;;;;;0.00;0.00;73349.50;10523790;28;20051;-76
2023/05/10 07:53:47;;;;;;;3.95;1.65;;;;;;;0.00;0.00;73352.53;10539792;28;20043;-76
2023/05/10 07:58:49;;;;;;;4.88;1.80;;;;;;;0.00;0.00;73334.22;10544086;28;20089;-75
2023/05/10 08:03:52;;;;;;;3.10;1.40;;;;;;;0.00;0.00;73343.38;10540450;28;20104;-76
2023/05/10 08:08:55;;;;;;;2.47;1.50;;;;;;;0.00;0.00;73343.38;10537578;28;20039;-76
2023/05/10 08:13:56;;;;;;;6.35;1.48;;;;;;;0.00;0.00;73352.53;10538432;28;20028;-76
2023/05/10 08:18:58;;;;;;;3.47;1.33;;;;;;;0.00;0.00;73358.66;10545597;28;20527;-76
2023/05/10 08:24:00;;;;;;;2.75;1.33;;;;;;;0.00;0.00;73363.22;10539142;28;20044;-75
2023/05/10 08:29:02;;;;;;;5.50;1.33;;;;;;;0.00;0.00;73343.38;10521170;28;20602;-76
2023/05/10 08:34:03;;;;;;;2.53;1.30;;;;;;;0.00;0.00;73318.97;10559396;28;20044;-75
2023/05/10 08:39:05;;;;;;;3.80;1.55;;;;;;;0.00;0.00;73303.72;10563665;28;20384;-75
2023/05/10 08:44:18;;;;;;;4.72;1.48;;;;;;;0.00;0.00;73312.88;10557140;27;20036;-75
2023/05/10 08:49:20;;;;;;;2.45;1.35;;;;;;;0.00;0.00;73328.13;10560685;28;20538;-75
2023/05/10 08:54:22;;;;;;;2.97;1.50;;;;;;;0.00;0.00;73352.53;10547606;28;20036;-75
2023/05/10 08:59:25;;;;;;;5.10;1.48;;;;;;;0.00;0.00;73381.53;10536928;28;20044;-75
2023/05/10 09:04:27;;;;;;;3.00;1.67;;;;;;;0.00;0.00;73372.38;10518897;28;20432;-76
2023/05/10 09:09:29;;;;;;;2.58;1.40;;;;;;;0.00;0.00;73364.75;10556007;28;20044;-76
2023/05/10 09:14:35;;;;;;;3.35;1.67;;;;;;;0.00;0.00;73357.13;10558148;27;20055;-76
2023/05/10 09:19:36;;;;;;;2.58;1.30;;;;;;;0.00;0.00;73354.06;10549450;28;20048;-75
2023/05/10 09:24:42;;;;;;;2.42;1.25;;;;;;;0.00;0.00;73373.91;10535428;28;20039;-76
2023/05/10 09:29:43;;;;;;;3.15;1.40;;;;;;;0.00;0.00;73373.91;10539601;27;20078;-76
2023/05/10 09:34:45;;;;;;;4.10;1.60;;;;;;;0.00;0.00;73378.47;10545699;28;20032;-75
2023/05/10 09:39:47;;;;;;;3.30;1.63;;;;;;;0.00;0.00;73367.78;10543809;28;20047;-75
2023/05/10 09:44:48;;;;;;;4.00;1.67;;;;;;;0.00;0.00;73354.06;10556140;28;20443;-75
2023/05/10 09:49:51;;;;;;;2.28;1.23;;;;;;;0.00;0.00;73334.22;10559277;27;20482;-75
2023/05/10 09:54:53;;;;;;;3.83;1.70;;;;;;;0.00;0.00;73320.50;10561899;28;20052;-75
2023/05/10 09:59:57;;;;;;;3.53;1.42;;;;;;;0.00;0.00;73326.59;10549325;28;20042;-75
2023/05/10 10:05:01;;;;;;;2.83;1.13;;;;;;;0.00;0.00;73326.59;10543857;28;20059;-76
2023/05/10 10:10:04;;;;;;;2.10;0.90;;;;;;;0.00;0.00;73352.53;10548219;27;20064;-76
2023/05/10 10:15:07;;;;;;;1.42;0.70;;;;;;;0.00;0.00;73354.06;10552664;27;20059;-75
2023/05/10 10:20:10;;;;;;;0.32;0.30;;;;;;;0.00;0.00;73346.44;10551199;28;20055;-75
2023/05/10 10:25:15;;;;;;;1.17;0.63;;;;;;;0.00;0.00;73325.06;10539756;28;20063;-76
2023/05/10 10:30:17;;;;;;;4.32;0.77;;;;;;;0.00;0.00;73311.34;10553534;28;20491;-75
2023/05/10 10:35:18;;;;;;;0.40;0.40;;;;;;;0.00;0.00;73285.41;10552575;28;20039;-75
2023/05/10 10:40:28;;;;;;;0.68;0.40;;;;;;;0.00;0.00;73257.94;10543970;28;20051;-76
2023/05/10 10:45:33;;;;;;;2.08;0.52;;;;;;;0.00;0.00;73239.63;10553123;28;20043;-75
2023/05/10 10:50:44;;;;;;;0.30;0.30;;;;;;;0.00;0.00;73227.41;10563647;28;20047;-75
2023/05/10 10:55:47;;;;;;;0.30;0.20;;;;;;;0.00;0.00;73244.19;10555552;28;20036;-75
2023/05/10 11:00:49;;;;;;;0.17;0.15;;;;;;;0.00;0.00;73245.72;10549645;27;20047;-75
2023/05/10 11:05:58;;;;;;;0.10;0.10;;;;;;;0.00;0.00;73264.03;10548806;28;20031;-74
2023/05/10 11:10:59;;;;;;;0.10;0.10;;;;;;;0.00;0.00;73285.41;10548696;28;20392;-74
2023/05/10 11:16:14;;;;;;;0.65;0.20;;;;;;;0.00;0.00;73314.41;10550798;28;20043;-74
2023/05/10 11:21:16;;;;;;;0.22;0.20;;;;;;;0.00;0.00;73343.38;10550865;28;20047;-75
2023/05/10 11:26:18;;;;;;;0.47;0.25;;;;;;;0.00;0.00;73347.97;10547745;28;20115;-74
2023/05/10 11:31:20;;;;;;;1.13;0.77;;;;;;;0.00;0.00;73355.59;10550349;28;20162;-73
2023/05/10 11:36:32;;;;;;;1.80;0.82;;;;;;;0.00;0.00;73373.91;10543776;28;20038;-74
2023/05/10 11:41:34;;;;;;;2.03;1.10;;;;;;;0.00;0.00;73357.13;10547606;28;20054;-74
2023/05/10 11:46:36;;;;;;;3.65;1.65;;;;;;;0.00;0.00;73352.53;10546861;28;20035;-74
2023/05/10 11:51:39;;;;;;;4.22;1.83;;;;;;;0.00;0.00;73367.78;10552154;28;20055;-73
2023/05/10 11:56:40;;;;;;;4.22;2.00;;;;;;;0.00;0.00;73376.94;10556720;28;20040;-74
2023/05/10 12:01:43;;;;;;;5.20;1.98;;;;;;;0.00;0.00;73381.53;10563730;28;20051;-74
2023/05/10 12:06:46;;;;;;;4.05;1.95;;;;;;;0.00;0.00;73404.41;10560529;28;20028;-73
2023/05/10 12:11:47;;;;;;;4.75;2.22;;;;;;;0.00;0.00;73424.25;10560623;28;20031;-73
2023/05/10 12:16:49;;;;;;;4.18;1.90;;;;;;;0.00;0.00;73386.09;10563508;28;20044;-73
2023/05/10 12:21:51;;;;;;;4.15;2.08;;;;;;;0.00;0.00;73364.75;10563672;28;20067;-73
2023/05/10 12:26:52;;;;;;;5.30;2.10;;;;;;;0.00;0.00;73375.44;10555422;28;20048;-73
2023/05/10 12:31:58;;;;;;;4.28;1.98;;;;;;;0.00;0.00;73364.75;10550811;28;20597;-73
2023/05/10 12:37:00;;;;;;;6.55;2.33;;;;;;;0.00;0.00;73349.50;10551850;28;20176;-73
2023/05/10 12:42:02;;;;;;;3.72;1.65;;;;;;;0.00;0.00;73355.59;10549517;28;20069;-73
2023/05/10 12:47:04;;;;;;;4.28;1.90;;;;;;;0.00;0.00;73376.94;10554544;28;20046;-73
2023/05/10 12:52:05;;;;;;;4.80;2.10;;;;;;;0.00;0.00;73381.53;10549095;28;20048;-73
2023/05/10 12:57:07;;;;;;;3.00;1.58;;;;;;;0.00;0.00;73375.44;10563555;28;20081;-73
2023/05/10 13:02:09;;;;;;;4.18;1.75;;;;;;;0.00;0.00;73364.75;10560278;28;20048;-73
2023/05/10 13:07:11;;;;;;;1.58;1.27;;;;;;;0.00;0.00;73347.97;10555125;28;20043;-73
2023/05/10 13:12:12;;;;;;;3.10;1.45;;;;;;;0.00;0.00;73317.44;10561054;28;20403;-72
2023/05/10 13:17:14;;;;;;;4.95;2.10;;;;;;;0.00;0.00;73239.63;10548130;27;20074;-72
2023/05/10 13:22:16;;;;;;;5.03;1.60;;;;;;;0.00;0.00;73265.56;10545492;28;20135;-73
2023/05/10 13:27:29;;;;;;;2.65;1.48;;;;;;;0.00;0.00;73257.94;10557089;28;20411;-72
2023/05/10 13:32:31;;;;;;;3.50;1.70;;;;;;;0.00;0.00;73241.16;10550868;28;20043;-71
2023/05/10 13:37:35;;;;;;;5.35;1.30;;;;;;;0.00;0.00;73225.88;10553949;28;20052;-71
2023/05/10 13:42:37;;;;;;;2.08;1.10;;;;;;;0.00;0.00;73245.72;10546099;28;20040;-72
2023/05/10 13:47:38;;;;;;;1.23;0.93;;;;;;;0.00;0.00;73257.94;10552023;28;20047;-71
2023/05/10 13:52:40;;;;;;;0.75;0.60;;;;;;;0.00;0.00;73259.47;10544039;28;20050;-71
2023/05/10 13:57:42;;;;;;;1.42;0.90;;;;;;;0.00;0.00;73247.25;10538830;27;20040;-71
2023/05/10 14:02:44;;;;;;;1.77;1.05;;;;;;;0.00;0.00;73201.47;10560316;28;20059;-70
2023/05/10 14:07:46;;;;;;;2.67;1.33;;;;;;;0.00;0.00;73172.47;10550055;27;20140;-71
2023/05/10 14:12:47;;;;;;;1.65;1.05;;;;;;;0.00;0.00;73184.69;10549398;28;20039;-71
2023/05/10 14:17:49;;;;;;;0.82;0.73;;;;;;;0.00;0.00;73160.28;10557099;28;20047;-71
2023/05/10 14:22:50;;;;;;;0.93;0.60;;;;;;;0.00;0.00;73177.06;10566269;27;20084;-70
2023/05/10 14:27:54;;;;;;;1.00;0.60;;;;;;;0.00;0.00;73203.00;10565468;27;20040;-70
2023/05/10 14:32:58;;;;;;;1.90;0.50;;;;;;;0.00;0.00;73233.53;10562189;27;20042;-70
2023/05/10 14:37:59;;;;;;;1.33;0.88;;;;;;;0.00;0.00;73253.34;10563529;28;20055;-71
2023/05/10 14:43:01;;;;;;;0.82;0.57;;;;;;;0.00;0.00;73268.63;10551276;27;20054;-70
2023/05/10 14:48:04;;;;;;;1.52;1.00;;;;;;;0.00;0.00;73238.09;10557110;28;20055;-71
2023/05/10 14:53:05;;;;;;;1.27;0.85;;;;;;;0.00;0.00;73227.41;10553413;27;20040;-72
2023/05/10 14:58:07;;;;;;;0.95;0.68;;;;;;;0.00;0.00;73236.56;10555350;28;20046;-71
2023/05/10 15:03:09;;;;;;;1.58;0.95;;;;;;;0.00;0.00;73225.88;10564441;28;20063;-69
2023/05/10 15:08:12;;;;;;;3.15;1.13;;;;;;;0.00;0.00;73209.09;10541065;28;20066;-71
2023/05/10 15:13:14;;;;;;;0.90;0.45;;;;;;;0.00;0.00;73242.69;10557046;28;20260;-71
2023/05/10 15:18:15;;;;;;;1.70;0.75;;;;;;;0.00;0.00;73254.88;10549320;28;20040;-71
2023/05/10 15:23:17;;;;;;;1.15;0.60;;;;;;;0.00;0.00;73251.84;10548010;28;20690;-71
2023/05/10 15:28:18;;;;;;;1.15;0.70;;;;;;;0.00;0.00;73250.31;10565489;27;20618;-71
2023/05/10 15:33:20;;;;;;;0.65;0.50;;;;;;;0.00;0.00;73245.72;10557423;28;20392;-72
2023/05/10 15:38:22;;;;;;;1.10;0.50;;;;;;;0.00;0.00;73251.84;10563357;28;20039;-71
2023/05/10 15:43:23;;;;;;;0.82;0.60;;;;;;;0.00;0.00;73250.31;10557764;28;20044;-70
2023/05/10 15:48:25;;;;;;;1.52;0.75;;;;;;;0.00;0.00;73245.72;10547422;27;20503;-71
2023/05/10 15:53:26;;;;;;;1.25;0.70;;;;;;;0.00;0.00;73222.84;10554824;28;20048;-70
2023/05/10 15:58:28;;;;;;;1.02;0.60;;;;;;;0.00;0.00;73163.31;10555936;27;20411;-71
2023/05/10 16:03:29;;;;;;;1.10;0.65;;;;;;;0.00;0.00;73138.91;10555332;27;20059;-71
2023/05/10 16:08:32;;;;;;;1.30;0.80;;;;;;;0.00;0.00;73166.38;10538600;27;20042;-71
2023/05/10 16:13:34;;;;;;;0.70;0.50;;;;;;;0.00;0.00;73221.31;10564732;27;20118;-72
2023/05/10 16:18:35;;;;;;;2.00;1.00;;;;;;;0.00;0.00;73257.94;10556060;28;20044;-71
2023/05/10 16:23:37;;;;;;;2.20;1.30;;;;;;;0.00;0.00;73282.34;10563711;27;20062;-72
2023/05/10 16:28:39;;;;;;;1.65;0.88;;;;;;;0.00;0.00;73296.09;10546221;28;20044;-71
2023/05/10 16:33:41;;;;;;;2.10;0.88;;;;;;;0.00;0.00;73296.09;10545616;28;20036;-71
2023/05/10 16:38:43;;;;;;;1.55;0.80;;;;;;;0.00;0.00;73309.81;10537260;28;20052;-71
2023/05/10 16:43:44;;;;;;;1.17;0.82;;;;;;;0.00;0.00;73317.44;10555537;28;20051;-71
2023/05/10 16:48:46;;;;;;;0.70;0.65;;;;;;;0.00;0.00;73334.22;10554246;28;20044;-71
2023/05/10 16:53:47;;;;;;;1.58;0.70;;;;;;;0.00;0.00;73340.34;10544777;28;20356;-71
2023/05/10 16:58:49;;;;;;;1.48;0.98;;;;;;;0.00;0.00;73346.44;10556377;28;20052;-71
2023/05/10 17:03:50;;;;;;;2.72;0.68;;;;;;;0.00;0.00;73303.72;10568851;27;20044;-71
2023/05/10 17:08:52;;;;;;;1.13;0.70;;;;;;;0.00;0.00;73270.13;10555399;28;20400;-70
2023/05/10 17:13:53;;;;;;;2.15;1.00;;;;;;;0.00;0.00;73282.34;10562370;27;20538;-71
2023/05/10 17:18:55;;;;;;;6.22;1.27;;;;;;;0.00;0.00;73282.34;10570877;27;20050;-71
2023/05/10 17:23:57;;;;;;;1.20;0.77;;;;;;;0.00;0.00;73277.78;10571228;27;20685;-71
2023/05/10 17:28:58;;;;;;;3.22;1.27;;;;;;;0.00;0.00;73285.41;10568332;27;20048;-71
2023/05/10 17:34:00;;;;;;;4.18;1.20;;;;;;;0.00;0.00;73305.25;10566089;27;20138;-70
2023/05/10 17:39:05;;;;;;;2.00;0.90;;;;;;;0.00;0.00;73352.53;10561688;27;20500;-71
2023/05/10 17:44:07;;;;;;;2.20;1.08;;;;;;;0.00;0.00;73352.53;10557742;28;20040;-71
2023/05/10 17:49:08;;;;;;;2.75;1.02;;;;;;;0.00;0.00;73395.25;10532107;28;20478;-71
2023/05/10 17:54:10;;;;;;;1.58;1.08;;;;;;;0.00;0.00;73395.25;10557837;28;20557;-71
2023/05/10 17:59:11;;;;;;;1.55;1.02;;;;;;;0.00;0.00;73410.53;10542928;27;20549;-72
2023/05/10 18:04:13;;;;;;;3.20;0.90;;;;;;;0.00;0.00;73413.56;10551408;28;20070;-71
2023/05/10 18:09:15;;;;;;;1.40;0.82;;;;;;;0.00;0.00;73419.69;10563070;27;20130;-71
2023/05/10 18:14:16;;;;;;;2.75;1.30;;;;;;;0.00;0.00;73428.84;10559220;28;20415;-71
2023/05/10 18:19:38;;;;;;;2.42;1.25;;;;;;;0.00;0.00;73434.94;10547366;27;20139;-71
2023/05/10 18:24:40;;;;;;;1.52;1.02;;;;;;;0.00;0.00;73442.56;10554421;27;20052;-71
2023/05/10 18:29:41;;;;;;;1.95;1.20;;;;;;;0.00;0.00;73447.16;10557668;28;20562;-72
2023/05/10 18:34:43;;;;;;;2.58;1.30;;;;;;;0.00;0.00;73451.72;10542755;27;20035;-71
2023/05/10 18:39:44;;;;;;;2.90;1.33;;;;;;;0.00;0.00;73456.31;10553266;27;20332;-71
2023/05/10 18:44:46;;;;;;;2.35;1.02;;;;;;;0.00;0.00;73465.47;10546798;28;20050;-71
2023/05/10 18:49:47;;;;;;;4.30;1.20;;;;;;;0.00;0.00;73473.09;10553315;27;20040;-71
2023/05/10 18:54:49;;;;;;;3.03;1.35;;;;;;;0.00;0.00;73489.88;10556261;28;20850;-70
2023/05/10 18:59:50;;;;;;;2.00;1.10;;;;;;;0.00;0.00;73502.06;10547453;28;20040;-71
2023/05/10 19:04:52;;;;;;;2.10;1.05;;;;;;;0.00;0.00;73508.19;10555765;27;20046;-71
2023/05/10 19:09:54;;;;;;;2.30;1.10;;;;;;;0.00;0.00;73517.34;10549549;28;20039;-71
2023/05/10 19:14:55;;;;;;;3.80;1.15;;;;;;;0.00;0.00;73526.50;10557560;28;20039;-70
2023/05/10 19:19:58;;;;;;;3.00;1.02;;;;;;;0.00;0.00;73534.13;10541412;28;20036;-71
2023/05/10 19:24:59;;;;;;;3.83;1.48;;;;;;;0.00;0.00;73546.31;10557997;28;20048;-72
2023/05/10 19:30:01;;;;;;;2.67;1.45;;;;;;;0.00;0.00;73564.63;10552199;27;20043;-71
2023/05/10 19:35:03;;;;;;;2.38;1.20;;;;;;;0.00;0.00;73575.31;10561762;27;20036;-70
2023/05/10 19:40:07;;;;;;;2.88;1.65;;;;;;;0.00;0.00;73578.38;10537757;28;20384;-71
2023/05/10 19:45:10;;;;;;;4.63;1.40;;;;;;;0.00;0.00;73593.63;10545113;28;20143;-70
2023/05/10 19:50:12;;;;;;;3.17;1.40;;;;;;;0.00;0.00;73613.47;10532122;28;20058;-70
2023/05/10 19:55:25;;;;;;;2.85;1.35;;;;;;;0.00;0.00;73624.16;10586037;27;20074;-71
2023/05/10 20:00:27;;;;;;;3.42;1.67;;;;;;;0.00;0.00;73634.81;10582681;27;20039;-71
2023/05/10 20:05:29;;;;;;;3.67;1.35;;;;;;;0.00;0.00;73648.56;10585395;27;20044;-70
2023/05/10 20:10:30;;;;;;;4.05;1.80;;;;;;;0.00;0.00;73654.66;10593394;27;20092;-71
2023/05/10 20:15:33;;;;;;;3.33;1.42;;;;;;;0.00;0.00;73660.78;10563139;27;20097;-71
2023/05/10 20:20:37;;;;;;;2.38;1.23;;;;;;;0.00;0.00;73666.88;10548965;28;20087;-72
2023/05/10 20:25:39;;;;;;;5.35;1.52;;;;;;;0.00;0.00;73676.03;10564603;28;20084;-71
2023/05/10 20:30:40;;;;;;;3.38;1.60;;;;;;;0.00;0.00;73683.66;10555121;28;20044;-71
2023/05/10 20:35:43;;;;;;;3.05;1.45;;;;;;;0.00;0.00;73694.34;10552739;28;20032;-71
2023/05/10 20:40:45;;;;;;;5.13;1.95;;;;;;;0.00;0.00;73692.81;10546305;28;20040;-71
2023/05/10 20:45:47;;;;;;;5.40;2.30;;;;;;;0.00;0.00;73698.91;10547537;28;20114;-71
2023/05/10 20:50:50;;;;;;;5.03;1.92;;;;;;;0.00;0.00;73706.53;10541485;28;20040;-73
2023/05/10 20:55:52;;;;;;;2.60;1.55;;;;;;;0.00;0.00;73706.53;10539414;28;20043;-71
2023/05/10 21:00:53;;;;;;;6.97;2.15;;;;;;;0.00;0.00;73717.22;10538831;28;20054;-72
2023/05/10 21:05:55;;;;;;;4.72;1.83;;;;;;;0.00;0.00;73718.75;10555602;28;20043;-71
2023/05/10 21:10:57;;;;;;;5.53;2.33;;;;;;;0.00;0.00;73724.84;10545974;28;20059;-71
2023/05/10 21:15:59;;;;;;;8.15;2.15;;;;;;;0.00;0.00;73729.44;10537906;27;20533;-71
2023/05/10 21:21:00;;;;;;;6.18;2.20;;;;;;;0.00;0.00;73730.97;10545342;28;20462;-71
2023/05/10 21:26:03;;;;;;;3.83;1.80;;;;;;;0.00;0.00;73737.06;10554794;28;20790;-71
2023/05/10 21:31:05;;;;;;;3.60;1.80;;;;;;;0.00;0.00;73749.28;10557230;28;20126;-71
2023/05/10 21:36:07;;;;;;;4.95;2.35;;;;;;;0.00;0.00;73746.22;10545384;28;20075;-71
2023/05/10 21:41:09;;;;;;;8.18;2.72;;;;;;;0.00;0.00;73743.16;10545942;28;20075;-71
2023/05/10 21:46:12;;;;;;;4.65;2.05;;;;;;;0.00;0.00;73744.69;10565650;28;20413;-71
2023/05/10 21:51:14;;;;;;;6.63;2.58;;;;;;;0.00;0.00;73752.31;10557091;28;20050;-71
2023/05/10 21:56:16;;;;;;;5.07;1.90;;;;;;;0.00;0.00;73756.91;10568837;28;20040;-71
2023/05/10 22:01:18;;;;;;;5.13;2.35;;;;;;;0.00;0.00;73763.00;10566393;28;20044;-71
2023/05/10 22:06:19;;;;;;;5.30;2.53;;;;;;;0.00;0.00;73764.53;10546374;28;20620;-71
2023/05/10 22:11:22;;;;;;;4.88;2.05;;;;;;;0.00;0.00;73764.53;10557309;28;20043;-71
2023/05/10 22:16:23;;;;;;;6.20;2.55;;;;;;;0.00;0.00;73759.94;10556132;28;20044;-71
2023/05/10 22:21:25;;;;;;;5.90;2.63;;;;;;;0.00;0.00;73761.47;10561257;28;20039;-71
2023/05/10 22:26:26;;;;;;;7.18;2.90;;;;;;;0.00;0.00;73752.31;10554218;28;20799;-71
2023/05/10 22:31:28;;;;;;;6.32;2.67;;;;;;;0.00;0.00;73758.44;10556120;28;20055;-71
2023/05/10 22:36:30;;;;;;;6.28;2.33;;;;;;;0.00;0.00;73759.94;10552224;28;20039;-72
2023/05/10 22:41:32;;;;;;;4.38;1.83;;;;;;;0.00;0.00;73761.47;10543333;28;20073;-71
2023/05/10 22:46:35;;;;;;;8.98;2.88;;;;;;;0.00;0.00;73772.16;10543015;28;20062;-71
2023/05/10 22:51:37;;;;;;;6.47;2.08;;;;;;;0.00;0.00;73770.63;10559059;28;20039;-71
2023/05/10 22:56:38;;;;;;;6.60;2.67;;;;;;;0.00;0.00;73770.63;10550974;28;20044;-70
2023/05/10 23:01:40;;;;;;;5.25;2.55;;;;;;;0.00;0.00;73790.47;10568753;28;20040;-71
2023/05/10 23:06:42;;;;;;;5.85;2.40;;;;;;;0.00;0.00;73788.94;10536046;28;20132;-71
2023/05/10 23:11:43;;;;;;;5.95;2.47;;;;;;;0.00;0.00;73801.16;10558500;28;20562;-70
2023/05/10 23:16:45;;;;;;;5.18;2.45;;;;;;;0.00;0.00;73807.25;10567617;27;20036;-71
2023/05/10 23:21:47;;;;;;;6.63;2.65;;;;;;;0.00;0.00;73824.03;10552509;28;20227;-71
2023/05/10 23:26:50;;;;;;;6.50;2.35;;;;;;;0.00;0.00;73843.88;10552620;28;20040;-72
2023/05/10 23:31:51;;;;;;;5.18;2.17;;;;;;;0.00;0.00;73843.88;10560278;28;20054;-72
2023/05/10 23:36:53;;;;;;;6.85;3.20;;;;;;;0.00;0.00;73859.13;10566572;28;20044;-71
2023/05/10 23:41:54;;;;;;;6.00;2.45;;;;;;;0.00;0.00;73878.97;10541853;28;20040;-71
2023/05/10 23:46:56;;;;;;;11.43;3.75;;;;;;;0.00;0.00;73883.56;10565918;28;20036;-71
2023/05/10 23:51:57;;;;;;;10.13;3.35;;;;;;;0.00;0.00;73898.81;10548620;28;20171;-71
2023/05/10 23:56:59;;;;;;;10.07;4.10;;;;;;;0.00;0.00;73904.91;10556988;28;20043;-73
